Time;durP1;ratioP1;P1;durP2;ratioP2;P2;SDS_P1;SDS_P2;PMS_P1;PMS_P2;Temp;Humidity;BMP_temperature;BMP_pressure;BME280_temperature;BME280_humidity;BME280_pressure;Samples;Min_cycle;Max_cycle;Signal;HPM_P1;HPM_P2
2023/02/23 00:01:26;;;;;;;17.07;8.67;;;7.40;99.90;;;;;;5014038;28;20879;-83
2023/02/23 00:03:55;;;;;;;14.73;8.00;;;7.40;99.90;;;;;;4974124;28;20436;-84
2023/02/23 00:06:21;;;;;;;17.17;8.97;;;7.40;99.90;;;;;;5014048;28;20910;-80
2023/02/23 00:08:47;;;;;;;17.23;9.20;;;7.40;99.90;;;;;;5014025;28;20448;-81
2023/02/23 00:11:14;;;;;;;19.67;9.93;;;7.40;99.90;;;;;;5014009;28;20544;-80
2023/02/23 00:13:41;;;;;;;15.90;8.83;;;7.40;99.90;;;;;;5013862;28;20784;-81
2023/02/23 00:16:21;;;;;;;11.53;7.20;;;7.40;99.90;;;;;;5013877;28;20421;-81
2023/02/23 00:18:49;;;;;;;25.60;11.50;;;7.40;99.90;;;;;;5012190;28;20505;-83
2023/02/23 00:21:17;;;;;;;16.10;8.87;;;7.30;99.90;;;;;;5013786;28;20471;-80
2023/02/23 00:23:56;;;;;;;15.57;9.40;;;7.30;99.90;;;;;;5013594;28;20413;-81
2023/02/23 00:26:23;;;;;;;19.07;10.47;;;7.30;99.90;;;;;;5013563;28;20460;-80
2023/02/23 00:28:52;;;;;;;17.70;10.37;;;7.30;99.90;;;;;;5013729;28;20427;-81
2023/02/23 00:31:24;;;;;;;18.63;9.37;;;7.30;99.90;;;;;;5013722;28;20429;-84
2023/02/23 00:33:54;;;;;;;16.60;9.47;;;7.40;99.90;;;;;;5013296;28;20454;-84
2023/02/23 00:36:22;;;;;;;16.27;7.70;;;7.30;99.90;;;;;;5012364;28;20784;-85
2023/02/23 00:38:52;;;;;;;19.50;10.40;;;7.30;99.90;;;;;;5024603;28;20470;-84
2023/02/23 00:41:29;;;;;;;16.07;9.23;;;7.30;99.90;;;;;;5033204;28;20561;-83
2023/02/23 00:43:57;;;;;;;17.53;9.43;;;7.30;99.90;;;;;;5031966;28;20780;-84
2023/02/23 00:46:25;;;;;;;16.50;10.00;;;7.30;99.90;;;;;;5033218;28;20424;-84
2023/02/23 00:48:54;;;;;;;18.53;9.70;;;7.30;99.90;;;;;;5005303;28;20443;-84
2023/02/23 00:51:20;;;;;;;17.43;9.13;;;7.30;99.90;;;;;;5004761;28;20438;-86
2023/02/23 00:53:45;;;;;;;15.40;9.40;;;7.30;99.90;;;;;;5013432;28;20533;-85
2023/02/23 00:56:14;;;;;;;17.97;9.53;;;7.30;99.90;;;;;;5013311;28;20499;-85
2023/02/23 00:58:40;;;;;;;14.43;8.67;;;7.30;99.90;;;;;;5013397;28;20182;-83
2023/02/23 01:01:08;;;;;;;21.37;10.00;;;7.30;99.90;;;;;;5013275;28;20906;-84
2023/02/23 01:03:35;;;;;;;15.93;9.13;;;7.30;99.90;;;;;;5013013;28;20406;-85
2023/02/23 01:06:04;;;;;;;18.50;9.73;;;7.30;99.90;;;;;;5012058;28;20831;-85
2023/02/23 01:08:30;;;;;;;17.30;9.57;;;7.30;99.90;;;;;;5013215;28;20511;-88
2023/02/23 01:10:56;;;;;;;18.53;8.57;;;7.30;99.90;;;;;;5012117;28;20423;-85
2023/02/23 01:13:23;;;;;;;19.50;10.13;;;7.20;99.90;;;;;;5013239;28;20413;-84
2023/02/23 01:15:50;;;;;;;15.90;8.97;;;7.20;99.90;;;;;;5013237;28;20415;-86
2023/02/23 01:18:20;;;;;;;16.63;10.30;;;7.20;99.90;;;;;;5012820;28;20427;-81
2023/02/23 01:20:46;;;;;;;16.50;9.27;;;7.20;99.90;;;;;;5011891;28;20821;-86
2023/02/23 01:23:12;;;;;;;18.03;8.43;;;7.20;99.90;;;;;;5012820;28;20418;-86
2023/02/23 01:25:39;;;;;;;18.33;7.80;;;7.20;99.90;;;;;;5012902;28;20462;-85
2023/02/23 01:28:05;;;;;;;18.57;9.50;;;7.10;99.90;;;;;;5012960;28;20429;-85
2023/02/23 01:30:30;;;;;;;21.10;10.50;;;7.20;99.90;;;;;;5013012;28;20429;-83
2023/02/23 01:32:56;;;;;;;12.17;8.90;;;7.20;99.90;;;;;;5012627;28;20175;-84
2023/02/23 01:35:22;;;;;;;18.10;9.17;;;7.10;99.90;;;;;;5012910;28;20194;-82
2023/02/23 01:37:48;;;;;;;15.37;9.50;;;7.10;99.90;;;;;;5013049;28;20186;-86
2023/02/23 01:40:29;;;;;;;20.90;9.40;;;7.10;99.90;;;;;;5012909;28;20222;-86
2023/02/23 01:43:12;;;;;;;17.53;9.53;;;7.10;99.90;;;;;;5013043;28;20473;-86
2023/02/23 01:45:39;;;;;;;13.17;7.70;;;7.20;99.90;;;;;;5012953;28;20409;-85
2023/02/23 01:48:11;;;;;;;16.60;10.27;;;7.20;99.90;;;;;;5012562;28;20406;-85
2023/02/23 01:50:43;;;;;;;24.90;9.93;;;7.10;99.90;;;;;;5012882;28;20500;-85
2023/02/23 01:53:09;;;;;;;11.87;8.43;;;7.10;99.90;;;;;;5011574;28;21247;-84
2023/02/23 01:55:35;;;;;;;15.70;10.30;;;7.10;99.90;;;;;;5011601;28;20423;-84
2023/02/23 01:58:14;;;;;;;22.50;11.20;;;7.00;99.90;;;;;;5012829;28;20943;-84
2023/02/23 02:00:44;;;;;;;17.37;10.30;;;7.00;99.90;;;;;;5013057;28;20237;-89
2023/02/23 02:03:16;;;;;;;16.60;9.57;;;6.90;99.90;;;;;;4996545;28;20415;-81
2023/02/23 02:05:41;;;;;;;16.10;9.53;;;7.00;99.90;;;;;;4999016;28;20422;-81
2023/02/23 02:08:09;;;;;;;15.57;9.93;;;7.00;99.90;;;;;;5016296;28;20515;-84
2023/02/23 02:10:38;;;;;;;14.43;8.10;;;7.00;99.90;;;;;;5016231;28;20626;-85
2023/02/23 02:13:07;;;;;;;13.90;9.90;;;7.00;99.90;;;;;;5016126;28;20416;-82
2023/02/23 02:15:37;;;;;;;15.70;10.00;;;7.00;99.90;;;;;;5016167;28;20773;-81
2023/02/23 02:18:22;;;;;;;18.53;9.90;;;6.90;99.90;;;;;;5015791;28;20564;-81
2023/02/23 02:21:10;;;;;;;16.90;9.10;;;7.00;99.90;;;;;;5015943;28;20525;-85
2023/02/23 02:24:10;;;;;;;18.70;9.53;;;6.90;99.90;;;;;;5016105;28;21073;-81
2023/02/23 02:26:50;;;;;;;14.77;8.37;;;7.00;99.90;;;;;;5015791;28;20537;-81
2023/02/23 02:29:42;;;;;;;14.43;8.40;;;7.00;99.90;;;;;;5014870;28;20478;-87
2023/02/23 02:32:38;;;;;;;18.13;9.67;;;7.00;99.90;;;;;;5014404;28;20483;-87
2023/02/23 02:35:41;;;;;;;13.83;8.20;;;7.00;99.90;;;;;;5014597;28;20427;-79
2023/02/23 02:38:24;;;;;;;19.33;9.90;;;7.00;99.90;;;;;;5015751;28;20512;-86
2023/02/23 02:41:02;;;;;;;17.33;8.63;;;6.90;99.90;;;;;;5015642;28;20475;-79
2023/02/23 02:43:45;;;;;;;20.97;10.30;;;6.90;99.90;;;;;;5015701;28;20413;-84
2023/02/23 02:46:28;;;;;;;18.97;8.23;;;6.90;99.90;;;;;;5015284;28;20425;-79
2023/02/23 02:49:00;;;;;;;20.53;10.10;;;6.90;99.90;;;;;;5014337;28;20459;-81
2023/02/23 02:51:47;;;;;;;19.50;8.80;;;6.90;99.90;;;;;;5015439;28;20424;-83
2023/02/23 02:54:35;;;;;;;15.73;8.33;;;7.00;99.90;;;;;;5015493;28;20418;-86
2023/02/23 02:57:03;;;;;;;26.57;8.57;;;6.90;99.90;;;;;;5015339;28;20509;-79
2023/02/23 04:18:25;;;;;;;14.23;8.67;;;6.60;99.90;;;;;;5014027;28;20424;-82
2023/02/23 04:20:50;;;;;;;12.63;8.47;;;6.60;99.90;;;;;;5013864;28;20472;-87
2023/02/23 04:23:17;;;;;;;19.67;7.33;;;6.50;99.90;;;;;;5012671;28;20425;-87
2023/02/23 04:25:43;;;;;;;19.13;9.03;;;6.50;99.90;;;;;;5013771;28;20241;-86
2023/02/23 04:28:08;;;;;;;21.77;8.37;;;6.50;99.90;;;;;;5012478;28;20499;-87
2023/02/23 04:30:34;;;;;;;17.03;8.90;;;6.60;99.90;;;;;;5013853;28;20236;-86
2023/02/23 04:32:59;;;;;;;14.83;6.87;;;6.50;99.90;;;;;;5013527;28;20257;-87
2023/02/23 04:35:27;;;;;;;17.13;9.47;;;6.60;99.90;;;;;;5013721;28;20209;-86
2023/02/23 04:37:53;;;;;;;14.30;8.13;;;6.60;99.90;;;;;;5013648;28;20232;-86
2023/02/23 04:40:18;;;;;;;20.67;8.33;;;6.70;99.90;;;;;;5012261;28;20481;-87
2023/02/23 04:42:44;;;;;;;15.10;8.87;;;6.70;99.90;;;;;;5013591;28;20231;-84
2023/02/23 04:45:10;;;;;;;16.73;7.63;;;6.70;99.90;;;;;;5013441;28;20174;-81
2023/02/23 04:47:36;;;;;;;15.13;8.17;;;6.70;99.90;;;;;;5013276;28;20209;-83
2023/02/23 04:50:02;;;;;;;15.87;7.37;;;6.60;99.90;;;;;;5013565;28;20484;-86
2023/02/23 04:52:27;;;;;;;17.30;8.23;;;6.70;99.90;;;;;;5013388;28;20474;-87
2023/02/23 04:54:53;;;;;;;15.83;6.80;;;6.70;99.90;;;;;;5013569;28;20421;-88
2023/02/23 04:57:18;;;;;;;17.77;7.90;;;6.70;99.90;;;;;;5012227;28;20184;-86
2023/02/23 04:59:44;;;;;;;20.77;9.80;;;6.80;99.90;;;;;;5013267;28;20205;-86
2023/02/23 05:02:10;;;;;;;17.33;8.73;;;6.70;99.90;;;;;;5012842;28;20757;-87
2023/02/23 05:04:36;;;;;;;19.17;8.50;;;6.70;99.90;;;;;;5013350;28;20428;-84
2023/02/23 05:07:02;;;;;;;24.63;11.27;;;6.80;99.90;;;;;;5013223;28;20420;-85
2023/02/23 05:09:28;;;;;;;21.83;10.17;;;6.70;99.90;;;;;;5013278;28;20715;-85
2023/02/23 05:11:54;;;;;;;17.87;10.40;;;6.70;99.90;;;;;;5013244;28;20524;-86
2023/02/23 05:14:19;;;;;;;22.87;10.57;;;6.70;99.90;;;;;;5013076;28;20444;-85
2023/02/23 05:16:45;;;;;;;24.10;10.90;;;6.80;99.90;;;;;;5012938;28;20169;-85
2023/02/23 05:19:10;;;;;;;23.27;10.57;;;6.70;99.90;;;;;;5013084;28;20208;-84
2023/02/23 05:21:37;;;;;;;26.97;12.73;;;6.70;99.90;;;;;;5013292;28;20178;-86
2023/02/23 05:24:03;;;;;;;21.80;11.97;;;6.80;99.90;;;;;;5013244;28;20656;-88
2023/02/23 05:26:29;;;;;;;25.60;14.50;;;6.80;99.90;;;;;;5012917;28;20465;-87
2023/02/23 05:28:55;;;;;;;30.03;13.20;;;6.80;99.90;;;;;;5013119;28;20420;-86
2023/02/23 05:31:21;;;;;;;26.67;11.60;;;6.80;99.90;;;;;;5012797;28;20225;-87
2023/02/23 05:33:47;;;;;;;29.83;11.70;;;6.80;99.90;;;;;;5013096;28;20413;-85
2023/02/23 05:36:15;;;;;;;26.63;11.90;;;6.80;99.90;;;;;;5022298;28;20174;-86
2023/02/23 05:38:41;;;;;;;24.60;11.97;;;6.80;99.90;;;;;;5033463;28;20252;-85
2023/02/23 05:41:09;;;;;;;24.00;11.00;;;6.80;99.90;;;;;;5036684;28;20553;-86
2023/02/23 05:43:35;;;;;;;28.50;11.67;;;6.80;99.90;;;;;;5036599;28;20246;-87
2023/02/23 05:46:04;;;;;;;33.17;12.87;;;6.80;99.90;;;;;;5034925;28;20466;-87
2023/02/23 05:48:30;;;;;;;30.90;13.77;;;6.80;99.90;;;;;;5016136;28;20207;-82
2023/02/23 05:51:00;;;;;;;26.20;12.27;;;6.90;99.90;;;;;;4995179;28;21091;-85
2023/02/23 05:53:26;;;;;;;27.40;13.03;;;6.80;99.90;;;;;;5016741;28;20171;-83
2023/02/23 05:55:51;;;;;;;31.37;13.10;;;6.70;99.90;;;;;;5016606;28;20948;-81
2023/02/23 05:58:16;;;;;;;27.50;13.43;;;6.70;99.90;;;;;;5016551;28;20173;-88
2023/02/23 06:00:42;;;;;;;29.67;12.27;;;6.70;99.90;;;;;;5016188;28;20217;-87
2023/02/23 06:03:07;;;;;;;26.23;11.13;;;6.70;99.90;;;;;;5016535;28;20176;-86
2023/02/23 06:05:33;;;;;;;30.20;13.77;;;6.70;99.90;;;;;;5015267;28;20199;-83
2023/02/23 06:07:58;;;;;;;22.77;13.57;;;6.70;99.90;;;;;;5016526;28;20231;-86
2023/02/23 06:10:24;;;;;;;30.83;12.90;;;6.60;99.90;;;;;;5016322;28;20580;-83
2023/02/23 06:12:49;;;;;;;30.13;11.63;;;6.60;99.90;;;;;;5016306;28;20175;-81
2023/02/23 06:15:15;;;;;;;25.57;13.37;;;6.60;99.90;;;;;;5016076;28;20196;-83
2023/02/23 06:17:41;;;;;;;26.83;11.90;;;6.60;99.90;;;;;;5015913;28;20175;-80
2023/02/23 06:20:08;;;;;;;28.27;12.70;;;6.50;99.90;;;;;;5016131;28;20216;-86
2023/02/23 06:22:33;;;;;;;30.00;12.63;;;6.60;99.90;;;;;;5016535;28;20174;-83
2023/02/23 06:24:59;;;;;;;26.67;11.20;;;6.60;99.90;;;;;;5016090;28;20417;-82
2023/02/23 06:27:25;;;;;;;22.10;11.00;;;6.60;99.90;;;;;;5015816;28;20214;-83
2023/02/23 06:29:53;;;;;;;28.57;13.00;;;6.70;99.90;;;;;;5016170;28;20662;-84
2023/02/23 06:32:18;;;;;;;23.70;11.40;;;6.60;99.90;;;;;;5015923;28;20411;-86
2023/02/23 06:34:44;;;;;;;24.00;11.70;;;6.60;99.90;;;;;;5015033;28;20583;-85
2023/02/23 06:37:10;;;;;;;27.63;12.40;;;6.60;99.90;;;;;;5016122;28;20193;-83
2023/02/23 06:39:36;;;;;;;24.53;11.30;;;6.60;99.90;;;;;;5015515;28;20216;-85
2023/02/23 06:42:01;;;;;;;25.03;11.70;;;6.60;99.90;;;;;;5015196;28;20440;-85
2023/02/23 06:44:27;;;;;;;23.97;11.80;;;6.70;99.90;;;;;;5014233;28;20642;-83
2023/02/23 06:46:53;;;;;;;25.13;13.13;;;6.60;99.90;;;;;;5012698;28;20607;-83
2023/02/23 06:49:18;;;;;;;20.70;10.57;;;6.60;99.90;;;;;;5015417;28;20373;-88
2023/02/23 06:51:44;;;;;;;25.70;12.07;;;6.70;99.90;;;;;;5015457;28;20206;-88
2023/02/23 06:54:12;;;;;;;16.83;10.33;;;6.70;99.90;;;;;;5015328;28;20659;-83
2023/02/23 06:56:38;;;;;;;27.23;11.83;;;6.80;99.90;;;;;;5015561;28;20206;-89
2023/02/23 06:59:03;;;;;;;21.00;10.43;;;6.70;99.90;;;;;;5014604;28;20451;-87
2023/02/23 07:01:32;;;;;;;17.90;11.23;;;6.80;99.90;;;;;;5014978;28;20679;-89
2023/02/23 07:03:57;;;;;;;21.70;10.97;;;6.70;99.90;;;;;;4991236;28;20741;-85
2023/02/23 07:06:26;;;;;;;22.70;11.73;;;6.70;99.90;;;;;;5035427;28;20425;-81
2023/02/23 07:08:51;;;;;;;20.70;10.00;;;6.70;99.90;;;;;;5035273;28;20185;-86
2023/02/23 07:11:18;;;;;;;19.20;10.77;;;6.80;99.90;;;;;;5035085;28;20482;-88
2023/02/23 07:13:43;;;;;;;20.13;11.43;;;6.80;99.90;;;;;;5035102;28;20244;-87
2023/02/23 07:16:09;;;;;;;22.63;12.10;;;6.70;99.90;;;;;;5035041;28;20423;-86
2023/02/23 07:18:35;;;;;;;24.57;11.40;;;6.80;99.90;;;;;;5033735;28;20268;-87
2023/02/23 07:21:00;;;;;;;24.40;12.17;;;6.70;99.90;;;;;;5034944;28;20566;-84
2023/02/23 07:23:27;;;;;;;21.20;10.97;;;6.70;99.90;;;;;;5034705;28;20169;-87
2023/02/23 07:25:55;;;;;;;26.07;13.30;;;6.80;99.90;;;;;;5033321;28;20302;-88
2023/02/23 07:28:21;;;;;;;24.23;11.40;;;6.80;99.90;;;;;;5034734;28;20424;-88
2023/02/23 07:30:49;;;;;;;24.50;11.63;;;6.90;99.90;;;;;;5034437;28;20412;-82
2023/02/23 07:33:15;;;;;;;25.90;13.60;;;6.90;99.90;;;;;;5033586;28;20280;-88
2023/02/23 07:35:41;;;;;;;23.17;12.33;;;6.90;99.90;;;;;;5034827;28;20814;-87
2023/02/23 07:38:07;;;;;;;27.73;11.30;;;6.90;99.90;;;;;;5033212;28;20436;-87
2023/02/23 07:40:33;;;;;;;29.13;13.37;;;6.90;99.90;;;;;;5034655;28;20476;-87
2023/02/23 07:42:59;;;;;;;21.77;10.77;;;6.90;99.90;;;;;;5033032;28;20454;-84
2023/02/23 07:45:25;;;;;;;22.80;11.43;;;6.90;99.90;;;;;;5033931;28;20167;-84
2023/02/23 07:47:50;;;;;;;25.13;12.50;;;6.90;99.90;;;;;;5034052;28;20834;-85
2023/02/23 07:50:16;;;;;;;21.83;12.67;;;6.90;99.90;;;;;;5034001;28;20421;-80
2023/02/23 07:52:42;;;;;;;22.20;11.50;;;6.90;99.90;;;;;;5034176;28;20572;-86
2023/02/23 07:55:09;;;;;;;23.70;12.10;;;7.00;99.90;;;;;;5034969;28;20588;-88
2023/02/23 07:57:35;;;;;;;21.50;10.97;;;7.00;99.90;;;;;;5034155;28;20420;-88
2023/02/23 08:00:00;;;;;;;26.53;12.50;;;7.00;99.90;;;;;;5034183;28;20470;-86
2023/02/23 08:02:31;;;;;;;26.10;13.27;;;7.10;99.90;;;;;;5033754;28;20196;-90
2023/02/23 08:04:57;;;;;;;22.13;11.30;;;7.10;99.90;;;;;;5035187;28;20222;-89
2023/02/23 08:07:24;;;;;;;25.93;13.40;;;7.10;99.90;;;;;;5034917;28;20412;-89
2023/02/23 08:09:53;;;;;;;30.50;14.67;;;7.20;99.90;;;;;;5035433;28;20427;-89
2023/02/23 08:12:19;;;;;;;22.87;11.87;;;7.20;99.90;;;;;;5035168;28;20425;-89
2023/02/23 08:14:44;;;;;;;20.83;10.50;;;7.30;99.90;;;;;;5034596;28;20411;-89
2023/02/23 08:17:10;;;;;;;26.20;14.50;;;7.30;99.90;;;;;;5033350;28;20673;-89
2023/02/23 08:19:36;;;;;;;23.80;13.83;;;7.20;99.90;;;;;;5033105;28;20196;-90
2023/02/23 08:22:03;;;;;;;22.87;13.07;;;7.30;99.90;;;;;;5034586;28;20427;-89
2023/02/23 08:24:38;;;;;;;26.47;12.33;;;7.20;99.90;;;;;;5034364;28;20431;-88
2023/02/23 08:27:03;;;;;;;27.53;14.30;;;7.30;99.90;;;;;;5033384;28;20479;-91
2023/02/23 08:29:29;;;;;;;24.67;12.40;;;7.30;99.90;;;;;;5034355;28;20467;-90
2023/02/23 08:31:55;;;;;;;32.33;14.20;;;7.30;99.90;;;;;;5033586;28;20178;-90
2023/02/23 08:34:21;;;;;;;33.80;14.60;;;7.30;99.90;;;;;;5032681;28;20197;-88
2023/02/23 08:36:50;;;;;;;31.00;14.37;;;7.40;99.90;;;;;;5033841;28;20647;-81
2023/02/23 08:39:15;;;;;;;26.73;14.40;;;7.40;99.90;;;;;;5033720;28;20417;-88
2023/02/23 08:41:41;;;;;;;27.90;14.40;;;7.40;99.90;;;;;;5033718;28;20413;-89
2023/02/23 08:44:07;;;;;;;31.20;14.13;;;7.40;99.90;;;;;;5033565;28;20663;-88
2023/02/23 08:46:33;;;;;;;32.40;16.30;;;7.40;99.90;;;;;;5031726;28;20198;-88
2023/02/23 08:48:58;;;;;;;32.97;16.50;;;7.40;99.90;;;;;;5033346;28;20174;-88
2023/02/23 08:51:24;;;;;;;31.37;17.90;;;7.50;99.90;;;;;;5033334;28;20878;-89
2023/02/23 08:53:50;;;;;;;29.10;14.80;;;7.50;99.90;;;;;;5033126;28;20250;-82
2023/02/23 08:56:15;;;;;;;35.93;16.37;;;7.50;99.90;;;;;;5033157;28;20175;-88
2023/02/23 08:58:42;;;;;;;42.20;19.23;;;7.50;99.90;;;;;;5033330;28;20256;-87
2023/02/23 09:01:16;;;;;;;35.70;16.10;;;7.50;99.90;;;;;;5032855;28;20219;-86
2023/02/23 09:03:41;;;;;;;40.17;18.90;;;7.60;99.90;;;;;;5033100;28;20419;-85
2023/02/23 09:06:11;;;;;;;40.97;20.00;;;7.60;99.90;;;;;;5033148;28;20773;-84
2023/02/23 09:08:38;;;;;;;38.97;19.20;;;7.60;99.90;;;;;;5017400;28;20210;-89
2023/02/23 09:11:06;;;;;;;34.83;16.73;;;7.60;99.90;;;;;;5012693;28;20416;-80
2023/02/23 09:13:32;;;;;;;36.27;18.80;;;7.70;99.90;;;;;;5011314;28;20469;-83
2023/02/23 09:15:57;;;;;;;36.57;17.83;;;7.80;99.90;;;;;;5015282;28;20445;-86
2023/02/23 09:18:28;;;;;;;36.03;16.17;;;7.80;99.90;;;;;;5016260;28;20186;-83
2023/02/23 09:20:53;;;;;;;38.57;20.87;;;7.80;99.90;;;;;;5016354;28;20214;-84
2023/02/23 09:23:19;;;;;;;31.70;18.13;;;7.90;99.90;;;;;;5016397;28;20774;-83
2023/02/23 09:25:45;;;;;;;37.67;20.13;;;7.90;99.90;;;;;;5016852;28;20633;-83
2023/02/23 09:28:13;;;;;;;35.90;17.57;;;7.90;99.90;;;;;;5017063;28;20250;-83
2023/02/23 09:30:40;;;;;;;38.83;18.10;;;7.90;99.90;;;;;;5016730;28;20433;-83
2023/02/23 09:33:06;;;;;;;32.83;15.60;;;7.90;99.90;;;;;;5016852;28;20470;-81
2023/02/23 09:35:33;;;;;;;34.50;17.50;;;7.90;99.90;;;;;;5016871;28;20410;-81
2023/02/23 09:37:58;;;;;;;28.20;15.30;;;7.90;99.90;;;;;;5016916;28;20175;-84
2023/02/23 09:40:32;;;;;;;29.77;14.83;;;8.00;99.90;;;;;;5016781;28;20995;-83
2023/02/23 09:43:27;;;;;;;30.30;16.53;;;8.00;99.90;;;;;;5016929;28;20503;-83
2023/02/23 09:46:17;;;;;;;26.33;15.10;;;8.00;99.90;;;;;;5016471;28;20406;-83
2023/02/23 09:48:43;;;;;;;30.57;18.03;;;8.00;99.90;;;;;;5016700;28;20402;-82
2023/02/23 09:51:16;;;;;;;32.03;18.17;;;8.00;99.90;;;;;;5016656;28;20403;-83
2023/02/23 09:53:46;;;;;;;31.47;16.17;;;8.00;99.90;;;;;;5016616;28;20183;-83
2023/02/23 09:56:17;;;;;;;30.43;16.63;;;8.00;99.90;;;;;;5016530;28;20949;-82
2023/02/23 09:58:43;;;;;;;38.67;18.90;;;8.00;99.90;;;;;;5016494;28;20438;-83
2023/02/23 10:01:20;;;;;;;30.27;16.37;;;8.10;99.90;;;;;;5016030;28;20552;-83
2023/02/23 10:03:55;;;;;;;30.17;15.40;;;8.00;99.90;;;;;;5016749;28;20476;-83
2023/02/23 10:06:21;;;;;;;30.93;15.73;;;8.00;99.90;;;;;;5016338;28;20914;-83
2023/02/23 10:08:49;;;;;;;34.03;17.10;;;7.90;99.90;;;;;;4976376;28;20525;-83
2023/02/23 10:11:22;;;;;;;38.40;19.17;;;7.90;99.90;;;;;;5015022;28;20172;-82
2023/02/23 10:14:24;;;;;;;40.43;18.73;;;7.90;99.90;;;;;;5016324;28;20655;-83
2023/02/23 10:16:59;;;;;;;42.23;20.40;;;7.90;99.90;;;;;;5015893;28;20452;-83
2023/02/23 10:19:36;;;;;;;43.13;22.17;;;7.90;99.90;;;;;;5016170;28;20471;-83
2023/02/23 10:22:05;;;;;;;39.37;19.60;;;7.90;99.90;;;;;;5016124;28;20429;-83
2023/02/23 10:24:42;;;;;;;49.67;21.87;;;7.90;99.90;;;;;;5015449;28;20425;-81
2023/02/23 10:27:22;;;;;;;56.40;26.23;;;7.80;99.90;;;;;;5015960;28;20828;-83
2023/02/23 10:29:54;;;;;;;67.23;29.70;;;7.80;99.90;;;;;;5015575;28;20409;-82
2023/02/23 10:32:44;;;;;;;66.03;28.97;;;7.70;99.90;;;;;;5015840;28;20487;-83
2023/02/23 10:35:16;;;;;;;75.93;34.03;;;7.70;99.90;;;;;;5015760;28;20932;-84
2023/02/23 10:37:41;;;;;;;91.20;34.00;;;7.70;99.90;;;;;;5015876;28;20784;-81
2023/02/23 10:40:19;;;;;;;83.63;33.20;;;7.70;99.90;;;;;;5015746;28;20464;-89
2023/02/23 10:42:45;;;;;;;80.90;32.37;;;7.80;99.90;;;;;;5015787;28;20660;-85
2023/02/23 10:45:23;;;;;;;75.30;32.30;;;7.90;99.90;;;;;;5015337;28;20418;-83
2023/02/23 10:47:52;;;;;;;76.57;31.00;;;8.10;99.90;;;;;;5015681;28;20167;-83
2023/02/23 10:50:21;;;;;;;96.07;33.73;;;8.30;99.90;;;;;;5015551;28;20480;-81
2023/02/23 10:52:50;;;;;;;84.10;33.30;;;8.40;99.90;;;;;;5015496;28;20422;-82
2023/02/23 10:55:22;;;;;;;86.47;33.23;;;;;;;;;;5015511;28;20423;-81
2023/02/23 10:57:50;;;;;;;86.77;31.97;;;8.50;99.90;;;;;;5015397;28;20773;-83
2023/02/23 11:00:15;;;;;;;78.17;29.40;;;8.40;99.90;;;;;;5014951;28;20462;-85
2023/02/23 11:02:42;;;;;;;74.27;28.00;;;8.50;99.90;;;;;;5015404;28;20562;-81
2023/02/23 11:05:49;;;;;;;75.17;28.47;;;8.50;99.90;;;;;;5034197;28;20190;-80
2023/02/23 11:08:33;;;;;;;74.47;29.60;;;8.50;99.90;;;;;;5035086;28;20884;-80
2023/02/23 11:11:03;;;;;;;80.80;30.70;;;8.40;99.90;;;;;;5003067;28;20418;-84
2023/02/23 11:13:35;;;;;;;87.10;32.57;;;8.30;99.90;;;;;;5034786;28;20750;-83
2023/02/23 11:16:09;;;;;;;75.57;29.77;;;8.30;99.90;;;;;;5011127;28;20413;-82
2023/02/23 11:18:36;;;;;;;81.87;30.93;;;8.40;99.90;;;;;;5001513;28;20531;-83
2023/02/23 11:21:07;;;;;;;79.77;29.90;;;8.30;99.90;;;;;;5002984;28;20478;-83
2023/02/23 11:23:38;;;;;;;60.67;28.17;;;8.30;99.90;;;;;;5004120;28;20753;-81
2023/02/23 11:26:21;;;;;;;67.90;28.47;;;8.20;99.90;;;;;;5004782;28;20564;-83
2023/02/23 11:28:52;;;;;;;78.03;28.67;;;8.20;99.90;;;;;;5003626;28;20407;-82
2023/02/23 11:31:21;;;;;;;71.50;30.10;;;8.10;99.90;;;;;;5004026;28;20478;-81
2023/02/23 11:33:48;;;;;;;74.40;27.97;;;8.10;99.90;;;;;;5002706;28;20783;-82
2023/02/23 11:36:23;;;;;;;76.67;28.20;;;8.00;99.90;;;;;;5002888;28;20455;-83
2023/02/23 11:39:03;;;;;;;83.60;27.83;;;8.00;99.90;;;;;;5000093;28;20435;-81
2023/02/23 11:41:31;;;;;;;78.63;29.70;;;8.00;99.90;;;;;;5002713;28;20983;-80
2023/02/23 11:43:58;;;;;;;72.97;28.87;;;8.00;99.90;;;;;;5003117;28;20412;-82
2023/02/23 11:46:26;;;;;;;72.77;26.90;;;7.90;99.90;;;;;;5002861;28;20787;-81
2023/02/23 11:48:58;;;;;;;63.10;26.37;;;7.90;99.90;;;;;;5003217;28;20418;-83
2023/02/23 11:51:37;;;;;;;73.37;25.80;;;7.90;99.90;;;;;;5002395;28;20423;-83
2023/02/23 11:54:03;;;;;;;77.20;27.80;;;7.90;99.90;;;;;;5002369;28;20414;-83
2023/02/23 11:56:33;;;;;;;92.23;30.70;;;8.00;99.90;;;;;;5004023;28;20477;-81
2023/02/23 11:59:02;;;;;;;80.47;28.90;;;7.90;99.90;;;;;;5003754;28;20954;-83
2023/02/23 12:01:40;;;;;;;63.13;24.80;;;8.10;99.90;;;;;;5001856;28;20549;-82
2023/02/23 12:04:08;;;;;;;66.70;24.50;;;8.50;99.90;;;;;;5005538;28;20428;-83
2023/02/23 12:06:40;;;;;;;68.40;26.13;;;8.70;99.90;;;;;;5003264;28;20762;-81
2023/02/23 12:09:19;;;;;;;65.63;26.60;;;8.90;99.90;;;;;;5004036;28;20417;-82
2023/02/23 12:11:50;;;;;;;68.57;24.80;;;9.10;99.90;;;;;;4971406;28;20446;-87
2023/02/23 12:14:28;;;;;;;50.77;22.43;;;9.10;99.90;;;;;;5010915;28;20529;-90
2023/02/23 12:17:00;;;;;;;55.07;22.53;;;9.30;99.90;;;;;;5013215;28;20440;-87
2023/02/23 12:19:30;;;;;;;55.40;23.00;;;9.20;99.90;;;;;;5013191;28;20502;-87
2023/02/23 12:22:10;;;;;;;52.73;21.23;;;9.30;99.90;;;;;;5013457;28;20429;-88
2023/02/23 12:24:43;;;;;;;50.10;21.30;;;9.10;99.90;;;;;;5011878;28;20868;-88
2023/02/23 12:27:14;;;;;;;55.37;21.53;;;9.10;99.90;;;;;;5012615;28;20482;-82
2023/02/23 12:30:10;;;;;;;52.53;22.67;;;9.10;99.90;;;;;;5012497;28;20432;-78
2023/02/23 12:32:35;;;;;;;55.67;22.47;;;9.20;99.90;;;;;;5013143;28;20505;-79
2023/02/23 12:35:13;;;;;;;58.70;22.80;;;9.10;99.90;;;;;;5013140;28;20450;-79
2023/02/23 12:37:41;;;;;;;53.40;23.13;;;9.00;99.90;;;;;;5013057;28;20189;-79
2023/02/23 12:40:17;;;;;;;66.37;23.93;;;9.00;99.90;;;;;;5012983;28;20454;-79
2023/02/23 12:42:49;;;;;;;55.20;22.27;;;9.00;99.90;;;;;;5013043;28;20969;-79
2023/02/23 12:45:30;;;;;;;53.63;20.87;;;8.90;99.90;;;;;;5006450;28;20422;-79
2023/02/23 12:48:22;;;;;;;52.57;21.63;;;8.80;99.90;;;;;;5002352;28;20419;-79
2023/02/23 12:50:52;;;;;;;53.70;22.17;;;8.80;99.90;;;;;;5003390;28;20402;-79
2023/02/23 12:53:24;;;;;;;52.47;22.00;;;8.80;99.90;;;;;;5002388;28;21376;-79
2023/02/23 12:56:34;;;;;;;56.63;19.70;;;8.80;99.90;;;;;;5001416;28;20413;-79
2023/02/23 12:59:31;;;;;;;57.17;21.87;;;8.80;99.90;;;;;;5002709;28;20501;-79
2023/02/23 13:02:07;;;;;;;52.60;24.43;;;8.80;99.90;;;;;;5002185;28;20425;-79
2023/02/23 13:04:54;;;;;;;56.20;22.20;;;8.80;99.90;;;;;;5002157;28;20474;-78
2023/02/23 13:07:34;;;;;;;52.50;21.43;;;8.80;99.90;;;;;;4999691;28;20773;-79
2023/02/23 13:10:28;;;;;;;50.57;20.60;;;8.80;99.90;;;;;;5002382;28;20448;-78
2023/02/23 13:13:16;;;;;;;49.13;19.57;;;8.70;99.90;;;;;;4965110;28;20463;-78
2023/02/23 13:15:57;;;;;;;46.47;20.50;;;8.60;99.90;;;;;;5001855;28;20419;-78
2023/02/23 13:18:29;;;;;;;60.53;22.30;;;8.60;99.90;;;;;;4991934;28;20411;-78
2023/02/23 13:21:00;;;;;;;53.43;21.20;;;;;;;;;;4992902;28;20475;-78
2023/02/23 13:23:44;;;;;;;51.07;21.47;;;;;;;;;;4992989;28;20498;-78
2023/02/23 13:26:17;;;;;;;56.17;20.90;;;8.60;99.90;;;;;;4992749;28;21059;-78
2023/02/23 13:28:58;;;;;;;46.70;20.23;;;8.60;99.90;;;;;;4992929;28;20407;-78
2023/02/23 13:31:28;;;;;;;42.93;18.97;;;8.70;99.90;;;;;;4991806;28;20507;-78
2023/02/23 13:33:56;;;;;;;51.37;19.47;;;8.70;99.90;;;;;;5014107;28;20418;-78
2023/02/23 13:36:28;;;;;;;48.87;19.27;;;8.70;99.90;;;;;;5031935;28;20407;-78
2023/02/23 13:39:27;;;;;;;49.57;20.40;;;8.70;99.90;;;;;;5032082;28;20464;-78
2023/02/23 13:42:14;;;;;;;51.57;20.37;;;8.50;99.90;;;;;;5022911;28;20453;-78
2023/02/23 13:44:55;;;;;;;50.67;19.37;;;8.70;99.90;;;;;;5031721;28;20404;-78
2023/02/23 13:47:52;;;;;;;45.50;18.43;;;8.60;99.90;;;;;;5032082;28;20437;-78
2023/02/23 13:50:39;;;;;;;50.00;21.23;;;8.50;99.90;;;;;;5031825;28;20489;-78
2023/02/23 13:53:07;;;;;;;57.70;20.30;;;8.50;99.90;;;;;;5031843;28;20430;-78
2023/02/23 13:55:36;;;;;;;52.60;21.17;;;8.50;99.90;;;;;;5031733;28;20438;-78
2023/02/23 13:58:14;;;;;;;50.07;19.30;;;8.50;99.90;;;;;;5031931;28;20509;-78
2023/02/23 14:00:48;;;;;;;48.80;19.50;;;8.40;99.90;;;;;;5033512;28;20570;-78
2023/02/23 14:03:27;;;;;;;44.10;20.10;;;8.40;99.90;;;;;;5035683;28;20417;-77
2023/02/23 14:05:58;;;;;;;50.03;20.43;;;8.40;99.90;;;;;;5035557;28;20417;-78
2023/02/23 14:08:33;;;;;;;49.90;19.23;;;8.40;99.90;;;;;;5035527;28;20414;-78
2023/02/23 14:10:59;;;;;;;41.63;17.27;;;8.40;99.90;;;;;;5035454;28;20419;-78
2023/02/23 14:13:33;;;;;;;46.43;21.40;;;8.40;99.90;;;;;;5026994;28;20899;-77
2023/02/23 14:16:17;;;;;;;53.60;20.80;;;8.40;99.90;;;;;;4985837;28;20254;-77
2023/02/23 14:19:27;;;;;;;51.13;19.53;;;8.40;99.90;;;;;;5015428;28;20458;-78